X-preSS Vesuvio — 9HA3961 — position and weather

sailwx.info

Track history (hours):
 
Tides and Currents Weather Stations Pressure Air Temp Water Temp Dewpoint Dewpoint Depression Visibility Wind Speed Wind Dir Waves Ship Positions

X-preSS Vesuvio

Last reported at 2017-Sep-19 17:00 UTC. Time now 2017-Sep-19 17:19 UTC.
Position N 41°16' E 002°10'.

Length 134 m; draft 6.2 m.

Type: Cargo ship. MMSI: 256601000.

Date/timePositionNaut miles runAvg speedWind from/ knotsBaromVisibWave heightAir tempDewpointWater temp
2017-Sep-19 17:00N 41°16' E 002°10'3 5.4
2017-Sep-19 16:27N 41°13' E 002°08'512.1
2017-Sep-19 16:00N 41°09' E 002°03'612.1
2017-Sep-19 15:30N 41°04' E 001°59'611.7
2017-Sep-19 14:58N 40°59' E 001°54'511.7
2017-Sep-19 14:31N 40°55' E 001°49'611.8
2017-Sep-19 14:00N 40°50' E 001°45'611.7
2017-Sep-19 13:31N 40°45' E 001°40'612.0
2017-Sep-19 13:00N 40°40' E 001°35'611.9
2017-Sep-19 12:30N 40°36' E 001°31'611.8
2017-Sep-19 12:00N 40°31' E 001°26'611.4
2017-Sep-19 11:30N 40°28' E 001°20'611.3
2017-Sep-19 11:00N 40°25' E 001°14'611.6
2017-Sep-19 10:30N 40°22' E 001°07'611.8
2017-Sep-19 10:00N 40°18' E 001°01'611.9
2017-Sep-19 09:30N 40°15' E 000°54'  
2017-Sep-16 17:38N 37°50' W 000°17'1011.3
2017-Sep-16 16:47N 37°42' W 000°23'311.2
2017-Sep-16 16:30N 37°40' W 000°25'611.2
2017-Sep-16 16:00N 37°35' W 000°29'511.0
2017-Sep-16 15:30N 37°31' W 000°34'511.0
2017-Sep-16 15:00N 37°27' W 000°39'611.2
2017-Sep-16 14:30N 37°24' W 000°44'611.3
2017-Sep-16 13:58N 37°19' W 000°50'611.3
2017-Sep-16 13:29N 37°16' W 000°55'1011.4
2017-Sep-16 12:37N 37°09' W 001°05'20512.0
2017-Sep-15 19:30N 36°02' W 005°06'815.9
2017-Sep-15 19:00N 36°01' W 005°15'612.7
2017-Sep-15 18:30N 36°04' W 005°22'4 9.0
2017-Sep-15 18:00N 36°08' W 005°25'0 0.0
2017-Sep-15 13:03N 36°08' W 005°25'2 0.2
2017-Sep-15 02:45N 36°09' W 005°25'0 0.0
2017-Sep-15 00:38N 36°09' W 005°25'0 0.0
2017-Sep-14 21:59N 36°09' W 005°25'0 0.1
2017-Sep-14 19:52N 36°10' W 005°25'0 0.0
2017-Sep-14 17:45N 36°10' W 005°25'0 0.0
2017-Sep-14 17:21N 36°10' W 005°25'0 0.1
2017-Sep-14 16:27N 36°10' W 005°25'0 0.0
2017-Sep-14 15:59N 36°10' W 005°25'0 0.0
2017-Sep-14 15:29N 36°10' W 005°25'0 0.0
2017-Sep-14 03:43N 36°10' W 005°25'0 0.0
2017-Sep-14 03:21N 36°10' W 005°25'0 0.1
2017-Sep-14 02:39N 36°10' W 005°25'0 0.4
2017-Sep-14 02:30N 36°10' W 005°25'0 0.0
2017-Sep-14 01:57N 36°10' W 005°25'0 0.0
2017-Sep-14 01:27N 36°10' W 005°25'0 0.0
2017-Sep-14 00:59N 36°10' W 005°25'0 0.1
2017-Sep-14 00:29N 36°10' W 005°25'0 0.1
2017-Sep-13 23:50N 36°10' W 005°25'0 0.2
2017-Sep-13 23:26N 36°10' W 005°25'2 4.1
2017-Sep-13 23:00N 36°08' W 005°24'1 2.1
2017-Sep-13 22:30N 36°07' W 005°24'4 8.2
2017-Sep-13 22:01N 36°03' W 005°23'510.0
2017-Sep-13 21:30N 35°58' W 005°25'1810.9
2017-Sep-13 19:48N 35°53' W 005°47'310.6
2017-Sep-13 19:30N 35°53' W 005°51'4310.1
2017-Sep-13 15:17N 35°19' W 006°24'310.9
2017-Sep-13 15:00N 35°16' W 006°26'510.6
2017-Sep-13 14:30N 35°12' W 006°29'510.9
2017-Sep-13 14:00N 35°07' W 006°33'611.3
2017-Sep-13 13:30N 35°02' W 006°36'611.4
2017-Sep-13 13:00N 34°57' W 006°40'611.4
2017-Sep-13 12:30N 34°52' W 006°43'611.3
2017-Sep-13 11:59N 34°47' W 006°47'1312.0
2017-Sep-13 10:52N 34°36' W 006°55'411.2
2017-Sep-13 10:30N 34°32' W 006°58'711.3
2017-Sep-13 09:53N 34°27' W 007°02'2111.4
2017-Sep-13 08:05N 34°10' W 007°17'111.4
2017-Sep-13 08:00N 34°09' W 007°17'33 1.1
2017-Sep-12 01:31N 34°14' W 007°56'1 9.2
2017-Sep-12 01:25N 34°15' W 007°57'4 9.3
2017-Sep-12 01:00N 34°18' W 007°59'4 9.0
2017-Sep-12 00:30N 34°22' W 008°02'4 9.0
2017-Sep-12 00:00N 34°26' W 008°05'5 9.0
2017-Sep-11 23:29N 34°30' W 008°08'59 9.2
2017-Sep-11 17:04N 35°21' W 008°45'1 9.3
2017-Sep-11 17:00N 35°22' W 008°45'5 9.2
2017-Sep-11 16:30N 35°25' W 008°48'5 9.3
2017-Sep-11 16:00N 35°29' W 008°51'6 9.3
2017-Sep-11 15:23N 35°34' W 008°55'4 9.3
2017-Sep-11 14:59N 35°37' W 008°57'4 9.2
2017-Sep-11 14:30N 35°41' W 008°60'5 9.9
2017-Sep-11 14:00N 35°46' W 009°03'510.7
2017-Sep-11 13:30N 35°50' W 009°06'610.7
2017-Sep-11 12:57N 35°55' W 009°10'510.9
2017-Sep-11 12:30N 35°59' W 009°13'3410.6
2017-Sep-11 09:17N 36°29' W 009°34'312.0
2017-Sep-11 09:00N 36°32' W 009°36'811.8
2017-Sep-11 08:20N 36°38' W 009°42'711.8
2017-Sep-11 07:42N 36°45' W 009°47'4812.0
2017-Sep-11 03:40N 37°33' W 009°42'212.1
2017-Sep-11 03:31N 37°35' W 009°41'611.8
2017-Sep-11 03:00N 37°41' W 009°39'611.5
2017-Sep-11 02:30N 37°46' W 009°38'811.5
2017-Sep-11 01:50N 37°54' W 009°36'411.7
2017-Sep-11 01:30N 37°58' W 009°35'611.9
2017-Sep-11 01:00N 38°03' W 009°33'612.1
2017-Sep-11 00:30N 38°09' W 009°31'612.0
2017-Sep-11 00:00N 38°15' W 009°30'612.3
2017-Sep-10 23:30N 38°21' W 009°28'612.0
2017-Sep-10 23:00N 38°27' W 009°26'612.0
2017-Sep-10 22:30N 38°33' W 009°25'612.1
2017-Sep-10 22:00N 38°38' W 009°21'713.3
2017-Sep-10 21:30N 38°41' W 009°14'3 6.0
2017-Sep-10 21:00N 38°42' W 009°10'0 0.0
2017-Sep-10 19:43N 38°42' W 009°10'0 0.0
2017-Sep-10 19:19N 38°42' W 009°10'0 0.0
2017-Sep-10 18:48N 38°42' W 009°10'0 0.0
2017-Sep-10 18:27N 38°42' W 009°10'0 0.0
2017-Sep-10 17:57N 38°42' W 009°10'0 0.0
2017-Sep-10 17:09N 38°42' W 009°10'0 0.0
2017-Sep-10 16:02N 38°42' W 009°10'0 0.0
2017-Sep-10 15:38N 38°42' W 009°10'0 0.0
2017-Sep-10 15:20N 38°42' W 009°10'0 0.0
2017-Sep-10 14:59N 38°42' W 009°10'0 0.0
2017-Sep-10 14:00N 38°42' W 009°10'1 1.7
2017-Sep-10 13:30N 38°41' W 009°11'510.0
2017-Sep-10 13:00N 38°41' W 009°17'611.6
2017-Sep-10 12:30N 38°37' W 009°23'611.1
2017-Sep-10 12:00N 38°37' W 009°30'611.9
2017-Sep-10 11:30N 38°38' W 009°37'510.1
2017-Sep-10 11:00N 38°41' W 009°43'612.2
2017-Sep-10 10:30N 38°47' W 009°43'713.7
2017-Sep-10 10:00N 38°53' W 009°44'713.8
2017-Sep-10 09:30N 39°00' W 009°44'714.0
2017-Sep-10 09:01N 39°07' W 009°45'713.5
2017-Sep-10 08:31N 39°14' W 009°45'713.8
2017-Sep-10 08:00N 39°21' W 009°46'713.2
2017-Sep-10 07:30N 39°28' W 009°46'  
Track history (hours):
 
Tides and Currents Weather Stations Pressure Air Temp Water Temp Dewpoint Dewpoint Depression Visibility Wind Speed Wind Dir Waves Ship Positions

X-preSS Vesuvio

Last reported at 2017-Sep-19 17:00 UTC. Time now 2017-Sep-19 17:19 UTC.
Position N 41°16' E 002°10'.

Length 134 m; draft 6.2 m.

Type: Cargo ship. MMSI: 256601000.

Date/timePositionNaut miles runAvg speedWind from/ knotsBaromVisibWave heightAir tempDewpointWater temp
2017-Sep-19 17:00N 41°16' E 002°10'3 5.4
2017-Sep-19 16:27N 41°13' E 002°08'512.1
2017-Sep-19 16:00N 41°09' E 002°03'612.1
2017-Sep-19 15:30N 41°04' E 001°59'611.7
2017-Sep-19 14:58N 40°59' E 001°54'511.7
2017-Sep-19 14:31N 40°55' E 001°49'611.8
2017-Sep-19 14:00N 40°50' E 001°45'611.7
2017-Sep-19 13:31N 40°45' E 001°40'612.0
2017-Sep-19 13:00N 40°40' E 001°35'611.9
2017-Sep-19 12:30N 40°36' E 001°31'611.8
2017-Sep-19 12:00N 40°31' E 001°26'611.4
2017-Sep-19 11:30N 40°28' E 001°20'611.3
2017-Sep-19 11:00N 40°25' E 001°14'611.6
2017-Sep-19 10:30N 40°22' E 001°07'611.8
2017-Sep-19 10:00N 40°18' E 001°01'611.9
2017-Sep-19 09:30N 40°15' E 000°54'  
2017-Sep-16 17:38N 37°50' W 000°17'1011.3
2017-Sep-16 16:47N 37°42' W 000°23'311.2
2017-Sep-16 16:30N 37°40' W 000°25'611.2
2017-Sep-16 16:00N 37°35' W 000°29'511.0
2017-Sep-16 15:30N 37°31' W 000°34'511.0
2017-Sep-16 15:00N 37°27' W 000°39'611.2
2017-Sep-16 14:30N 37°24' W 000°44'611.3
2017-Sep-16 13:58N 37°19' W 000°50'611.3
2017-Sep-16 13:29N 37°16' W 000°55'1011.4
2017-Sep-16 12:37N 37°09' W 001°05'20512.0
2017-Sep-15 19:30N 36°02' W 005°06'815.9
2017-Sep-15 19:00N 36°01' W 005°15'612.7
2017-Sep-15 18:30N 36°04' W 005°22'4 9.0
2017-Sep-15 18:00N 36°08' W 005°25'0 0.0
2017-Sep-15 13:03N 36°08' W 005°25'2 0.2
2017-Sep-15 02:45N 36°09' W 005°25'0 0.0
2017-Sep-15 00:38N 36°09' W 005°25'0 0.0
2017-Sep-14 21:59N 36°09' W 005°25'0 0.1
2017-Sep-14 19:52N 36°10' W 005°25'0 0.0
2017-Sep-14 17:45N 36°10' W 005°25'0 0.0
2017-Sep-14 17:21N 36°10' W 005°25'0 0.1
2017-Sep-14 16:27N 36°10' W 005°25'0 0.0
2017-Sep-14 15:59N 36°10' W 005°25'0 0.0
2017-Sep-14 15:29N 36°10' W 005°25'0 0.0
2017-Sep-14 03:43N 36°10' W 005°25'0 0.0
2017-Sep-14 03:21N 36°10' W 005°25'0 0.1
2017-Sep-14 02:39N 36°10' W 005°25'0 0.4
2017-Sep-14 02:30N 36°10' W 005°25'0 0.0
2017-Sep-14 01:57N 36°10' W 005°25'0 0.0
2017-Sep-14 01:27N 36°10' W 005°25'0 0.0
2017-Sep-14 00:59N 36°10' W 005°25'0 0.1
2017-Sep-14 00:29N 36°10' W 005°25'0 0.1
2017-Sep-13 23:50N 36°10' W 005°25'0 0.2
2017-Sep-13 23:26N 36°10' W 005°25'2 4.1
2017-Sep-13 23:00N 36°08' W 005°24'1 2.1
2017-Sep-13 22:30N 36°07' W 005°24'4 8.2
2017-Sep-13 22:01N 36°03' W 005°23'510.0
2017-Sep-13 21:30N 35°58' W 005°25'1810.9
2017-Sep-13 19:48N 35°53' W 005°47'310.6
2017-Sep-13 19:30N 35°53' W 005°51'4310.1
2017-Sep-13 15:17N 35°19' W 006°24'310.9
2017-Sep-13 15:00N 35°16' W 006°26'510.6
2017-Sep-13 14:30N 35°12' W 006°29'510.9
2017-Sep-13 14:00N 35°07' W 006°33'611.3
2017-Sep-13 13:30N 35°02' W 006°36'611.4
2017-Sep-13 13:00N 34°57' W 006°40'611.4
2017-Sep-13 12:30N 34°52' W 006°43'611.3
2017-Sep-13 11:59N 34°47' W 006°47'1312.0
2017-Sep-13 10:52N 34°36' W 006°55'411.2
2017-Sep-13 10:30N 34°32' W 006°58'711.3
2017-Sep-13 09:53N 34°27' W 007°02'2111.4
2017-Sep-13 08:05N 34°10' W 007°17'111.4
2017-Sep-13 08:00N 34°09' W 007°17'33 1.1
2017-Sep-12 01:31N 34°14' W 007°56'1 9.2
2017-Sep-12 01:25N 34°15' W 007°57'4 9.3
2017-Sep-12 01:00N 34°18' W 007°59'4 9.0
2017-Sep-12 00:30N 34°22' W 008°02'4 9.0
2017-Sep-12 00:00N 34°26' W 008°05'5 9.0
2017-Sep-11 23:29N 34°30' W 008°08'59 9.2
2017-Sep-11 17:04N 35°21' W 008°45'1 9.3
2017-Sep-11 17:00N 35°22' W 008°45'5 9.2
2017-Sep-11 16:30N 35°25' W 008°48'5 9.3
2017-Sep-11 16:00N 35°29' W 008°51'6 9.3
2017-Sep-11 15:23N 35°34' W 008°55'4 9.3
2017-Sep-11 14:59N 35°37' W 008°57'4 9.2
2017-Sep-11 14:30N 35°41' W 008°60'5 9.9
2017-Sep-11 14:00N 35°46' W 009°03'510.7
2017-Sep-11 13:30N 35°50' W 009°06'610.7
2017-Sep-11 12:57N 35°55' W 009°10'510.9
2017-Sep-11 12:30N 35°59' W 009°13'3410.6
2017-Sep-11 09:17N 36°29' W 009°34'312.0
2017-Sep-11 09:00N 36°32' W 009°36'811.8
2017-Sep-11 08:20N 36°38' W 009°42'711.8
2017-Sep-11 07:42N 36°45' W 009°47'4812.0
2017-Sep-11 03:40N 37°33' W 009°42'212.1
2017-Sep-11 03:31N 37°35' W 009°41'611.8
2017-Sep-11 03:00N 37°41' W 009°39'611.5
2017-Sep-11 02:30N 37°46' W 009°38'811.5
2017-Sep-11 01:50N 37°54' W 009°36'411.7
2017-Sep-11 01:30N 37°58' W 009°35'611.9
2017-Sep-11 01:00N 38°03' W 009°33'612.1
2017-Sep-11 00:30N 38°09' W 009°31'612.0
2017-Sep-11 00:00N 38°15' W 009°30'612.3
2017-Sep-10 23:30N 38°21' W 009°28'612.0
2017-Sep-10 23:00N 38°27' W 009°26'612.0
2017-Sep-10 22:30N 38°33' W 009°25'612.1
2017-Sep-10 22:00N 38°38' W 009°21'713.3
2017-Sep-10 21:30N 38°41' W 009°14'3 6.0
2017-Sep-10 21:00N 38°42' W 009°10'0 0.0
2017-Sep-10 19:43N 38°42' W 009°10'0 0.0
2017-Sep-10 19:19N 38°42' W 009°10'0 0.0
2017-Sep-10 18:48N 38°42' W 009°10'0 0.0
2017-Sep-10 18:27N 38°42' W 009°10'0 0.0
2017-Sep-10 17:57N 38°42' W 009°10'0 0.0
2017-Sep-10 17:09N 38°42' W 009°10'0 0.0
2017-Sep-10 16:02N 38°42' W 009°10'0 0.0
2017-Sep-10 15:38N 38°42' W 009°10'0 0.0
2017-Sep-10 15:20N 38°42' W 009°10'0 0.0
2017-Sep-10 14:59N 38°42' W 009°10'0 0.0
2017-Sep-10 14:00N 38°42' W 009°10'1 1.7
2017-Sep-10 13:30N 38°41' W 009°11'510.0
2017-Sep-10 13:00N 38°41' W 009°17'611.6
2017-Sep-10 12:30N 38°37' W 009°23'611.1
2017-Sep-10 12:00N 38°37' W 009°30'611.9
2017-Sep-10 11:30N 38°38' W 009°37'510.1
2017-Sep-10 11:00N 38°41' W 009°43'612.2
2017-Sep-10 10:30N 38°47' W 009°43'713.7
2017-Sep-10 10:00N 38°53' W 009°44'713.8
2017-Sep-10 09:30N 39°00' W 009°44'714.0
2017-Sep-10 09:01N 39°07' W 009°45'713.5
2017-Sep-10 08:31N 39°14' W 009°45'713.8
2017-Sep-10 08:00N 39°21' W 009°46'713.2
2017-Sep-10 07:30N 39°28' W 009°46'  

Dump ship's entire track history